Etusivu
METAR-TAF:

METAR-TAF

Lentoasemat :

Mitiga International Airport

Tripoli, Libya

Leveyspiiri: 32-54N, Pituuspiiri: 13-17E, korkeus merenpinnasta: 11 m

METAR: puuttuu

Aika: 19:51 (17:51 UTC)

Sääennuste

Tämä raportti tehtiin 36 tuntia ja 51 minuuttia sitten, kello 05.00 UTC
Ennuste voimassa 20. päivästä klo 06 UTC - 21. päivään klo 06 UTC
Tuuli 2 kn eri suunnista
Näkyvyys: 8000 m
Tulossa
20. päivästä klo 10 UTC - 20. päivään klo 12 UTC
Tuuli 12 kn pohjoisen/luoteesta
Näkyvyys 10 km tai enemmän
Muutamia pilviä 3000 ft:n korkeudessa
Hajanaisia pilviä 7000 ft:n korkeudessa
Tulossa
21. päivästä klo 02 UTC - 21. päivään klo 04 UTC
Tuuli 2 kn eri suunnista

TAF: HLLM 200500Z 2006/2106 VRB02KT 8000 NSC BECMG 2010/2012 34012KT 9999 FEW030 SCT070 BECMG 2102/2104 VRB02KT

Säähavainnot ja -ennusteet yli 4000 lentoasemalta (METAR- ja TAF-raportit).

Käytössä olevat sääasemat on merkitty karttaan keltaisilla ja punaisilla pisteillä.

Aseta hiiri pisteen päälle nähdäksesi sääaseman nimen.

Klikkaa sitten nähdäksesi säähavainnot ja -ennusteet.

Kartan vaihtaminen: klikkaa mustalla rastilla varustettuja vihreitä pisteitä, niin voit zoomata sisään; viivalla varustettua vihreää pistettä, niin voit zoomata ulos tai vihreitä nuolia, niin pääset viereisille kartoille.


METAR-TAF: